Home   Weather   USA   Frederick   Past weeks
Flag for USA

Past Weather in Frederick, Maryland, USA — Yesterday and Last 2 Weeks

Currently: 34 °F. Passing clouds. (Weather station: Frederick Municipal Airport, USA). See more current weather

Past Weather in Frederick — Graph

°F

Frederick Temperature Yesterday

Maximum temperature yesterday: 52 °F (at 2:47 pm)
Minimum temperature yesterday: 27 °F (at 5:10 am)
Average temperature yesterday: 35 °F

High & Low Weather Summary for the Past Weeks

 TemperatureHumidityPressure
High66 °F (Feb 9, 2:47 pm)100% (Feb 6, 11:10 pm)30.49 "Hg (Feb 6, 11:10 pm)
Low25 °F (Feb 7, 4:10 am)27% (Feb 16, 2:47 pm)29.42 "Hg (Feb 13, 4:30 am)
Average40 °F75%30.06 "Hg
* Reported Feb 6 11:10 pm — Feb 21 11:30 pm, Frederick. Weather by CustomWeather, © 2024

Note: Actual official high and low records may vary slightly from our data, if they occured in-between our weather recording intervals... More about our weather records

Frederick Weather History for the Previous 24 Hours

Scroll right to see more
 ConditionsComfort  
Time TempWeatherWind HumidityBarometerVisibility
11:30 pm
Wed, Feb 21
36 °FClear.No wind87%30.23 "Hg10 mi
11:10 pm37 °FClear.5 mph81%30.24 "Hg10 mi
10:50 pm34 °FClear.No wind87%30.24 "Hg10 mi
10:30 pm32 °FClear.No wind93%30.24 "Hg10 mi
10:10 pm34 °FClear.No wind87%30.25 "Hg10 mi
8:47 pm39 °FClear.No wind65%30.25 "Hg10 mi
7:47 pm41 °FClear.No wind61%30.26 "Hg10 mi
5:47 pm46 °FSunny.9 mph50%30.24 "Hg10 mi
4:47 pm50 °FSunny.7 mph43%30.25 "Hg10 mi
3:47 pm50 °FSunny.8 mph47%30.26 "Hg10 mi
2:47 pm52 °FSunny.No wind41%30.28 "Hg10 mi
1:47 pm48 °FSunny.8 mph46%30.32 "Hg10 mi
12:47 pm46 °FSunny.No wind46%30.36 "Hg10 mi
11:47 am45 °FSunny.No wind49%30.39 "Hg10 mi
10:47 am43 °FSunny.6 mph57%30.44 "Hg10 mi
9:47 am37 °FSunny.No wind81%30.46 "Hg10 mi
8:47 am34 °FSunny.No wind100%30.47 "Hg10 mi
7:47 am27 °FSunny.No wind100%30.45 "Hg10 mi
6:47 am27 °FClear.No wind100%30.45 "Hg7 mi
5:50 am27 °FPassing clouds.No wind100%30.45 "Hg10 mi
5:30 am27 °FPassing clouds.No wind100%30.45 "Hg10 mi
5:10 am27 °FClear.No wind100%30.44 "Hg10 mi
4:50 am28 °FClear.No wind100%30.44 "Hg10 mi
4:30 am28 °FClear.No wind100%30.44 "Hg10 mi
4:10 am28 °FPassing clouds.No wind100%30.43 "Hg10 mi
3:50 am30 °FPassing clouds.No wind100%30.43 "Hg10 mi
3:30 am28 °FClear.No wind100%30.43 "Hg10 mi
2:50 am32 °FClear.No wind100%30.44 "Hg10 mi
2:30 am32 °FClear.5 mph100%30.44 "Hg10 mi
2:10 am28 °FClear.No wind100%30.45 "Hg10 mi
1:50 am30 °FClear.No wind100%30.46 "Hg10 mi
1:30 am30 °FClear.No wind93%30.46 "Hg10 mi
12:50 am30 °FClear.No wind100%30.46 "Hg10 mi
12:30 am28 °FClear.No wind100%30.45 "Hg10 mi
12:10 am30 °FClear.No wind100%30.45 "Hg10 mi
Weather by CustomWeather, © 2024

See weather overview